Aviation Digital Data Service (ADDS)

Output produced by METARs form (0248 UTC 22 April 2019)
found at http://www.aviationweather.gov/metar/data/
 
METAR text: OIBK 220200Z VRB02KT 8000 FEW025CB BKN030 27/19 Q1006
Conditions at: OIBK (KISH ISLAND , IR) observed 0200 UTC 22 April 2019
Temperature: 27.0°C (81°F)
Dewpoint: 19.0°C (66°F) [RH = 62%]
Pressure (altimeter): 29.70 inches Hg (1006.0 mb)
Winds: variable direction winds at 2 MPH (2 knots; 1.0 m/s)
Visibility: 5 miles ( 8 km)
Ceiling: 3000 feet AGL
Clouds: few clouds at 2500 feet AGL
broken clouds at 3000 feet AGL
Weather: no significant weather observed at this time

METAR text: OIBK 220100Z 33008KT 6000 BKN030 SCT090 27/21 Q1006
Conditions at: OIBK (KISH ISLAND , IR) observed 0100 UTC 22 April 2019
Temperature: 27.0°C (81°F)
Dewpoint: 21.0°C (70°F) [RH = 70%]
Pressure (altimeter): 29.70 inches Hg (1006.0 mb)
Winds: from the NNW (330 degrees) at 9 MPH (8 knots; 4.1 m/s)
Visibility: 4 miles ( 6 km)
Ceiling: 3000 feet AGL
Clouds: broken clouds at 3000 feet AGL
scattered clouds at 9000 feet AGL
Weather: no significant weather observed at this time

METAR text: OIBK 220000Z 30004KT 6000 FEW025CB SCT030 OVC090 27/20 Q1005
Conditions at: OIBK (KISH ISLAND , IR) observed 0000 UTC 22 April 2019
Temperature: 27.0°C (81°F)
Dewpoint: 20.0°C (68°F) [RH = 66%]
Pressure (altimeter): 29.68 inches Hg (1005.0 mb)
Winds: from the WNW (300 degrees) at 5 MPH (4 knots; 2.1 m/s)
Visibility: 4 miles ( 6 km)
Ceiling: 9000 feet AGL
Clouds: few clouds at 2500 feet AGL
scattered clouds at 3000 feet AGL
overcast cloud deck at 9000 feet AGL
Weather: no significant weather observed at this time

METAR text: OIBK 212300Z 15006KT 7000 FEW025CB BKN030 27/19 Q1003
Conditions at: OIBK (KISH ISLAND , IR) observed 2300 UTC 21 April 2019
Temperature: 27.0°C (81°F)
Dewpoint: 19.0°C (66°F) [RH = 62%]
Pressure (altimeter): 29.62 inches Hg (1003.0 mb)
Winds: from the SSE (150 degrees) at 7 MPH (6 knots; 3.1 m/s)
Visibility: 4 miles ( 7 km)
Ceiling: 3000 feet AGL
Clouds: few clouds at 2500 feet AGL
broken clouds at 3000 feet AGL
Weather: no significant weather observed at this time

METAR text: OIBK 212200Z 16010KT 7000 SCT030 27/18 Q1004
Conditions at: OIBK (KISH ISLAND , IR) observed 2200 UTC 21 April 2019
Temperature: 27.0°C (81°F)
Dewpoint: 18.0°C (64°F) [RH = 58%]
Pressure (altimeter): 29.65 inches Hg (1004.0 mb)
Winds: from the SSE (160 degrees) at 12 MPH (10 knots; 5.1 m/s)
Visibility: 4 miles ( 7 km)
Ceiling: at least 12,000 feet AGL
Clouds: scattered clouds at 3000 feet AGL
Weather: no significant weather observed at this time

METAR text: OIBK 212100Z VRB02KT 7000 NSC 27/19 Q1003
Conditions at: OIBK (KISH ISLAND , IR) observed 2100 UTC 21 April 2019
Temperature: 27.0°C (81°F)
Dewpoint: 19.0°C (66°F) [RH = 62%]
Pressure (altimeter): 29.62 inches Hg (1003.0 mb)
Winds: variable direction winds at 2 MPH (2 knots; 1.0 m/s)
Visibility: 4 miles ( 7 km)
Ceiling: at least 12,000 feet AGL
Clouds: sky clear below 12,000 feet AGL
Weather: no significant weather observed at this time

METAR text: OIBK 212000Z 15004KT 7000 BKN030 28/18 Q1003
Conditions at: OIBK (KISH ISLAND , IR) observed 2000 UTC 21 April 2019
Temperature: 28.0°C (82°F)
Dewpoint: 18.0°C (64°F) [RH = 55%]
Pressure (altimeter): 29.62 inches Hg (1003.0 mb)
Winds: from the SSE (150 degrees) at 5 MPH (4 knots; 2.1 m/s)
Visibility: 4 miles ( 7 km)
Ceiling: 3000 feet AGL
Clouds: broken clouds at 3000 feet AGL
Weather: no significant weather observed at this time

METAR text: OIBK 211900Z VRB02KT 7000 SCT030 27/22 Q1004
Conditions at: OIBK (KISH ISLAND , IR) observed 1900 UTC 21 April 2019
Temperature: 27.0°C (81°F)
Dewpoint: 22.0°C (72°F) [RH = 74%]
Pressure (altimeter): 29.65 inches Hg (1004.0 mb)
Winds: variable direction winds at 2 MPH (2 knots; 1.0 m/s)
Visibility: 4 miles ( 7 km)
Ceiling: at least 12,000 feet AGL
Clouds: scattered clouds at 3000 feet AGL
Weather: no significant weather observed at this time

METAR text: OIBK 211800Z 02004KT 7000 FEW035 28/20 Q1004
Conditions at: OIBK (KISH ISLAND , IR) observed 1800 UTC 21 April 2019
Temperature: 28.0°C (82°F)
Dewpoint: 20.0°C (68°F) [RH = 62%]
Pressure (altimeter): 29.65 inches Hg (1004.0 mb)
Winds: from the NNE (20 degrees) at 5 MPH (4 knots; 2.1 m/s)
Visibility: 4 miles ( 7 km)
Ceiling: at least 12,000 feet AGL
Clouds: few clouds at 3500 feet AGL
Weather: no significant weather observed at this time

METAR text: OIBK 211700Z 08006KT 7000 SCT030 30/11 Q1004
Conditions at: OIBK (KISH ISLAND , IR) observed 1700 UTC 21 April 2019
Temperature: 30.0°C (86°F)
Dewpoint: 11.0°C (52°F) [RH = 31%]
Pressure (altimeter): 29.65 inches Hg (1004.0 mb)
Winds: from the E (80 degrees) at 7 MPH (6 knots; 3.1 m/s)
Visibility: 4 miles ( 7 km)
Ceiling: at least 12,000 feet AGL
Clouds: scattered clouds at 3000 feet AGL
Weather: no significant weather observed at this time

METAR text: OIBK 211600Z 04004KT 7000 SCT030 BKN190 30/19 Q1005
Conditions at: OIBK (KISH ISLAND , IR) observed 1600 UTC 21 April 2019
Temperature: 30.0°C (86°F)
Dewpoint: 19.0°C (66°F) [RH = 52%]
Pressure (altimeter): 29.68 inches Hg (1005.0 mb)
Winds: from the NE (40 degrees) at 5 MPH (4 knots; 2.1 m/s)
Visibility: 4 miles ( 7 km)
Ceiling: 19000 feet AGL
Clouds: scattered clouds at 3000 feet AGL
broken clouds at 19000 feet AGL
Weather: no significant weather observed at this time

METAR text: OIBK 211500Z 00000KT 6000 FEW025CB BKN030 OVC190 29/21 Q1005
Conditions at: OIBK (KISH ISLAND , IR) observed 1500 UTC 21 April 2019
Temperature: 29.0°C (84°F)
Dewpoint: 21.0°C (70°F) [RH = 62%]
Pressure (altimeter): 29.68 inches Hg (1005.0 mb)
Winds: calm
Visibility: 4 miles ( 6 km)
Ceiling: 3000 feet AGL
Clouds: few clouds at 2500 feet AGL
broken clouds at 3000 feet AGL
overcast cloud deck at 19000 feet AGL
Weather: no significant weather observed at this time

METAR text: OIBK 211400Z 07004KT 6000 SCT030 SCT100 30/20 Q1004
Conditions at: OIBK (KISH ISLAND , IR) observed 1400 UTC 21 April 2019
Temperature: 30.0°C (86°F)
Dewpoint: 20.0°C (68°F) [RH = 55%]
Pressure (altimeter): 29.65 inches Hg (1004.0 mb)
Winds: from the ENE (70 degrees) at 5 MPH (4 knots; 2.1 m/s)
Visibility: 4 miles ( 6 km)
Ceiling: at least 12,000 feet AGL
Clouds: scattered clouds at 3000 feet AGL
scattered clouds at 10000 feet AGL
Weather: no significant weather observed at this time

METAR text: OIBK 211300Z 17006KT 7000 BKN030 OVC100 30/18 Q1004
Conditions at: OIBK (KISH ISLAND , IR) observed 1300 UTC 21 April 2019
Temperature: 30.0°C (86°F)
Dewpoint: 18.0°C (64°F) [RH = 49%]
Pressure (altimeter): 29.65 inches Hg (1004.0 mb)
Winds: from the S (170 degrees) at 7 MPH (6 knots; 3.1 m/s)
Visibility: 4 miles ( 7 km)
Ceiling: 3000 feet AGL
Clouds: broken clouds at 3000 feet AGL
overcast cloud deck at 10000 feet AGL
Weather: no significant weather observed at this time

METAR text: OIBK 211200Z 21008KT 6000 SCT035 31/19 Q1005
Conditions at: OIBK (KISH ISLAND , IR) observed 1200 UTC 21 April 2019
Temperature: 31.0°C (88°F)
Dewpoint: 19.0°C (66°F) [RH = 49%]
Pressure (altimeter): 29.68 inches Hg (1005.0 mb)
Winds: from the SSW (210 degrees) at 9 MPH (8 knots; 4.1 m/s)
Visibility: 4 miles ( 6 km)
Ceiling: at least 12,000 feet AGL
Clouds: scattered clouds at 3500 feet AGL
Weather: no significant weather observed at this time

METAR text: OIBK 211100Z 16008KT 7000 SCT035 SCT190 32/18 Q1005
Conditions at: OIBK (KISH ISLAND , IR) observed 1100 UTC 21 April 2019
Temperature: 32.0°C (90°F)
Dewpoint: 18.0°C (64°F) [RH = 43%]
Pressure (altimeter): 29.68 inches Hg (1005.0 mb)
Winds: from the SSE (160 degrees) at 9 MPH (8 knots; 4.1 m/s)
Visibility: 4 miles ( 7 km)
Ceiling: at least 12,000 feet AGL
Clouds: scattered clouds at 3500 feet AGL
scattered clouds at 19000 feet AGL
Weather: no significant weather observed at this time

METAR text: OIBK 211000Z 19008KT 7000 FEW030 SCT190 35/13 Q1005
Conditions at: OIBK (KISH ISLAND , IR) observed 1000 UTC 21 April 2019
Temperature: 35.0°C (95°F)
Dewpoint: 13.0°C (55°F) [RH = 27%]
Pressure (altimeter): 29.68 inches Hg (1005.0 mb)
Winds: from the S (190 degrees) at 9 MPH (8 knots; 4.1 m/s)
Visibility: 4 miles ( 7 km)
Ceiling: at least 12,000 feet AGL
Clouds: few clouds at 3000 feet AGL
scattered clouds at 19000 feet AGL
Weather: no significant weather observed at this time

METAR text: OIBK 210900Z 20006KT 6000 NSC 35/16 Q1006
Conditions at: OIBK (KISH ISLAND , IR) observed 0900 UTC 21 April 2019
Temperature: 35.0°C (95°F)
Dewpoint: 16.0°C (61°F) [RH = 32%]
Pressure (altimeter): 29.70 inches Hg (1006.0 mb)
Winds: from the SSW (200 degrees) at 7 MPH (6 knots; 3.1 m/s)
Visibility: 4 miles ( 6 km)
Ceiling: at least 12,000 feet AGL
Clouds: sky clear below 12,000 feet AGL
Weather: no significant weather observed at this time

METAR text: OIBK 210830Z 18006KT 6000 NSC 35/14 Q1006
Conditions at: OIBK (KISH ISLAND , IR) observed 0830 UTC 21 April 2019
Temperature: 35.0°C (95°F)
Dewpoint: 14.0°C (57°F) [RH = 28%]
Pressure (altimeter): 29.70 inches Hg (1006.0 mb)
Winds: from the S (180 degrees) at 7 MPH (6 knots; 3.1 m/s)
Visibility: 4 miles ( 6 km)
Ceiling: at least 12,000 feet AGL
Clouds: sky clear below 12,000 feet AGL
Weather: no significant weather observed at this time

METAR text: OIBK 210800Z 21008KT 6000 NSC 34/18 Q1006
Conditions at: OIBK (KISH ISLAND , IR) observed 0800 UTC 21 April 2019
Temperature: 34.0°C (93°F)
Dewpoint: 18.0°C (64°F) [RH = 39%]
Pressure (altimeter): 29.70 inches Hg (1006.0 mb)
Winds: from the SSW (210 degrees) at 9 MPH (8 knots; 4.1 m/s)
Visibility: 4 miles ( 6 km)
Ceiling: at least 12,000 feet AGL
Clouds: sky clear below 12,000 feet AGL
Weather: no significant weather observed at this time

METAR text: OIBK 210730Z 19006KT 6000 NSC 34/19 Q1007
Conditions at: OIBK (KISH ISLAND , IR) observed 0730 UTC 21 April 2019
Temperature: 34.0°C (93°F)
Dewpoint: 19.0°C (66°F) [RH = 41%]
Pressure (altimeter): 29.73 inches Hg (1007.0 mb)
Winds: from the S (190 degrees) at 7 MPH (6 knots; 3.1 m/s)
Visibility: 4 miles ( 6 km)
Ceiling: at least 12,000 feet AGL
Clouds: sky clear below 12,000 feet AGL
Weather: no significant weather observed at this time

METAR text: OIBK 210700Z 26004KT 6000 NSC 35/11 Q1007
Conditions at: OIBK (KISH ISLAND , IR) observed 0700 UTC 21 April 2019
Temperature: 35.0°C (95°F)
Dewpoint: 11.0°C (52°F) [RH = 23%]
Pressure (altimeter): 29.73 inches Hg (1007.0 mb)
Winds: from the W (260 degrees) at 5 MPH (4 knots; 2.1 m/s)
Visibility: 4 miles ( 6 km)
Ceiling: at least 12,000 feet AGL
Clouds: sky clear below 12,000 feet AGL
Weather: no significant weather observed at this time

METAR text: OIBK 210630Z 06004KT 6000 NSC 36/18 Q1007
Conditions at: OIBK (KISH ISLAND , IR) observed 0630 UTC 21 April 2019
Temperature: 36.0°C (97°F)
Dewpoint: 18.0°C (64°F) [RH = 35%]
Pressure (altimeter): 29.73 inches Hg (1007.0 mb)
Winds: from the ENE (60 degrees) at 5 MPH (4 knots; 2.1 m/s)
Visibility: 4 miles ( 6 km)
Ceiling: at least 12,000 feet AGL
Clouds: sky clear below 12,000 feet AGL
Weather: no significant weather observed at this time

METAR text: OIBK 210600Z 15004KT 6000 NSC 33/14 Q1007
Conditions at: OIBK (KISH ISLAND , IR) observed 0600 UTC 21 April 2019
Temperature: 33.0°C (91°F)
Dewpoint: 14.0°C (57°F) [RH = 32%]
Pressure (altimeter): 29.73 inches Hg (1007.0 mb)
Winds: from the SSE (150 degrees) at 5 MPH (4 knots; 2.1 m/s)
Visibility: 4 miles ( 6 km)
Ceiling: at least 12,000 feet AGL
Clouds: sky clear below 12,000 feet AGL
Weather: no significant weather observed at this time

METAR text: OIBK 210530Z 08004KT 6000 NSC 33/23 Q1007
Conditions at: OIBK (KISH ISLAND , IR) observed 0530 UTC 21 April 2019
Temperature: 33.0°C (91°F)
Dewpoint: 23.0°C (73°F) [RH = 56%]
Pressure (altimeter): 29.73 inches Hg (1007.0 mb)
Winds: from the E (80 degrees) at 5 MPH (4 knots; 2.1 m/s)
Visibility: 4 miles ( 6 km)
Ceiling: at least 12,000 feet AGL
Clouds: sky clear below 12,000 feet AGL
Weather: no significant weather observed at this time

METAR text: OIBK 210500Z 00000KT 6000 NSC 30/19 Q1007
Conditions at: OIBK (KISH ISLAND , IR) observed 0500 UTC 21 April 2019
Temperature: 30.0°C (86°F)
Dewpoint: 19.0°C (66°F) [RH = 52%]
Pressure (altimeter): 29.73 inches Hg (1007.0 mb)
Winds: calm
Visibility: 4 miles ( 6 km)
Ceiling: at least 12,000 feet AGL
Clouds: sky clear below 12,000 feet AGL
Weather: no significant weather observed at this time

METAR text: OIBK 210430Z 28006KT 5000 BR NSC 29/26 Q1007
Conditions at: OIBK (KISH ISLAND , IR) observed 0430 UTC 21 April 2019
Temperature: 29.0°C (84°F)
Dewpoint: 26.0°C (79°F) [RH = 84%]
Pressure (altimeter): 29.73 inches Hg (1007.0 mb)
Winds: from the W (280 degrees) at 7 MPH (6 knots; 3.1 m/s)
Visibility: 3 miles ( 5 km)
Ceiling: at least 12,000 feet AGL
Clouds: sky clear below 12,000 feet AGL
Weather: BR  (mist)

METAR text: OIBK 210400Z 32004KT 5000 BR NSC 27/24 Q1006
Conditions at: OIBK (KISH ISLAND , IR) observed 0400 UTC 21 April 2019
Temperature: 27.0°C (81°F)
Dewpoint: 24.0°C (75°F) [RH = 84%]
Pressure (altimeter): 29.70 inches Hg (1006.0 mb)
Winds: from the NW (320 degrees) at 5 MPH (4 knots; 2.1 m/s)
Visibility: 3 miles ( 5 km)
Ceiling: at least 12,000 feet AGL
Clouds: sky clear below 12,000 feet AGL
Weather: BR  (mist)

METAR text: OIBK 210300Z 00000KT 5000 BR NSC 24/22 Q1006
Conditions at: OIBK (KISH ISLAND , IR) observed 0300 UTC 21 April 2019
Temperature: 24.0°C (75°F)
Dewpoint: 22.0°C (72°F) [RH = 89%]
Pressure (altimeter): 29.70 inches Hg (1006.0 mb)
Winds: calm
Visibility: 3 miles ( 5 km)
Ceiling: at least 12,000 feet AGL
Clouds: sky clear below 12,000 feet AGL
Weather: BR  (mist)

METAR text: OIBK 210200Z 27004KT 6000 NSC 23/19 Q1005
Conditions at: OIBK (KISH ISLAND , IR) observed 0200 UTC 21 April 2019
Temperature: 23.0°C (73°F)
Dewpoint: 19.0°C (66°F) [RH = 78%]
Pressure (altimeter): 29.68 inches Hg (1005.0 mb)
Winds: from the W (270 degrees) at 5 MPH (4 knots; 2.1 m/s)
Visibility: 4 miles ( 6 km)
Ceiling: at least 12,000 feet AGL
Clouds: sky clear below 12,000 feet AGL
Weather: no significant weather observed at this time

METAR text: OIBK 210100Z 28004KT 6000 NSC 24/19 Q1005
Conditions at: OIBK (KISH ISLAND , IR) observed 0100 UTC 21 April 2019
Temperature: 24.0°C (75°F)
Dewpoint: 19.0°C (66°F) [RH = 74%]
Pressure (altimeter): 29.68 inches Hg (1005.0 mb)
Winds: from the W (280 degrees) at 5 MPH (4 knots; 2.1 m/s)
Visibility: 4 miles ( 6 km)
Ceiling: at least 12,000 feet AGL
Clouds: sky clear below 12,000 feet AGL
Weather: no significant weather observed at this time

METAR text: OIBK 210000Z 32004KT 6000 NSC 24/20 Q1005
Conditions at: OIBK (KISH ISLAND , IR) observed 0000 UTC 21 April 2019
Temperature: 24.0°C (75°F)
Dewpoint: 20.0°C (68°F) [RH = 78%]
Pressure (altimeter): 29.68 inches Hg (1005.0 mb)
Winds: from the NW (320 degrees) at 5 MPH (4 knots; 2.1 m/s)
Visibility: 4 miles ( 6 km)
Ceiling: at least 12,000 feet AGL
Clouds: sky clear below 12,000 feet AGL
Weather: no significant weather observed at this time

METAR text: OIBK 202300Z 33006KT 6000 NSC 24/19 Q1005
Conditions at: OIBK (KISH ISLAND , IR) observed 2300 UTC 20 April 2019
Temperature: 24.0°C (75°F)
Dewpoint: 19.0°C (66°F) [RH = 74%]
Pressure (altimeter): 29.68 inches Hg (1005.0 mb)
Winds: from the NNW (330 degrees) at 7 MPH (6 knots; 3.1 m/s)
Visibility: 4 miles ( 6 km)
Ceiling: at least 12,000 feet AGL
Clouds: sky clear below 12,000 feet AGL
Weather: no significant weather observed at this time

METAR text: OIBK 202200Z 33006KT 6000 NSC 24/18 Q1005
Conditions at: OIBK (KISH ISLAND , IR) observed 2200 UTC 20 April 2019
Temperature: 24.0°C (75°F)
Dewpoint: 18.0°C (64°F) [RH = 69%]
Pressure (altimeter): 29.68 inches Hg (1005.0 mb)
Winds: from the NNW (330 degrees) at 7 MPH (6 knots; 3.1 m/s)
Visibility: 4 miles ( 6 km)
Ceiling: at least 12,000 feet AGL
Clouds: sky clear below 12,000 feet AGL
Weather: no significant weather observed at this time

METAR text: OIBK 202100Z 33004KT 6000 NSC 24/18 Q1005
Conditions at: OIBK (KISH ISLAND , IR) observed 2100 UTC 20 April 2019
Temperature: 24.0°C (75°F)
Dewpoint: 18.0°C (64°F) [RH = 69%]
Pressure (altimeter): 29.68 inches Hg (1005.0 mb)
Winds: from the NNW (330 degrees) at 5 MPH (4 knots; 2.1 m/s)
Visibility: 4 miles ( 6 km)
Ceiling: at least 12,000 feet AGL
Clouds: sky clear below 12,000 feet AGL
Weather: no significant weather observed at this time

METAR text: OIBK 202000Z 11008KT 6000 NSC 25/18 Q1005
Conditions at: OIBK (KISH ISLAND , IR) observed 2000 UTC 20 April 2019
Temperature: 25.0°C (77°F)
Dewpoint: 18.0°C (64°F) [RH = 65%]
Pressure (altimeter): 29.68 inches Hg (1005.0 mb)
Winds: from the ESE (110 degrees) at 9 MPH (8 knots; 4.1 m/s)
Visibility: 4 miles ( 6 km)
Ceiling: at least 12,000 feet AGL
Clouds: sky clear below 12,000 feet AGL
Weather: no significant weather observed at this time

METAR text: OIBK 201900Z 08006KT 6000 SCT035 26/19 Q1005
Conditions at: OIBK (KISH ISLAND , IR) observed 1900 UTC 20 April 2019
Temperature: 26.0°C (79°F)
Dewpoint: 19.0°C (66°F) [RH = 65%]
Pressure (altimeter): 29.68 inches Hg (1005.0 mb)
Winds: from the E (80 degrees) at 7 MPH (6 knots; 3.1 m/s)
Visibility: 4 miles ( 6 km)
Ceiling: at least 12,000 feet AGL
Clouds: scattered clouds at 3500 feet AGL
Weather: no significant weather observed at this time

METAR text: OIBK 201800Z 07006KT 6000 SCT035 27/19 Q1006
Conditions at: OIBK (KISH ISLAND , IR) observed 1800 UTC 20 April 2019
Temperature: 27.0°C (81°F)
Dewpoint: 19.0°C (66°F) [RH = 62%]
Pressure (altimeter): 29.70 inches Hg (1006.0 mb)
Winds: from the ENE (70 degrees) at 7 MPH (6 knots; 3.1 m/s)
Visibility: 4 miles ( 6 km)
Ceiling: at least 12,000 feet AGL
Clouds: scattered clouds at 3500 feet AGL
Weather: no significant weather observed at this time

METAR text: OIBK 201700Z 14006KT 6000 NSC 27/18 Q1006
Conditions at: OIBK (KISH ISLAND , IR) observed 1700 UTC 20 April 2019
Temperature: 27.0°C (81°F)
Dewpoint: 18.0°C (64°F) [RH = 58%]
Pressure (altimeter): 29.70 inches Hg (1006.0 mb)
Winds: from the SE (140 degrees) at 7 MPH (6 knots; 3.1 m/s)
Visibility: 4 miles ( 6 km)
Ceiling: at least 12,000 feet AGL
Clouds: sky clear below 12,000 feet AGL
Weather: no significant weather observed at this time

METAR text: OIBK 201600Z 17006KT 6000 NSC 27/17 Q1006
Conditions at: OIBK (KISH ISLAND , IR) observed 1600 UTC 20 April 2019
Temperature: 27.0°C (81°F)
Dewpoint: 17.0°C (63°F) [RH = 54%]
Pressure (altimeter): 29.70 inches Hg (1006.0 mb)
Winds: from the S (170 degrees) at 7 MPH (6 knots; 3.1 m/s)
Visibility: 4 miles ( 6 km)
Ceiling: at least 12,000 feet AGL
Clouds: sky clear below 12,000 feet AGL
Weather: no significant weather observed at this time

METAR text: OIBK 201500Z 03004KT 7000 SCT035 30/17 Q1005
Conditions at: OIBK (KISH ISLAND , IR) observed 1500 UTC 20 April 2019
Temperature: 30.0°C (86°F)
Dewpoint: 17.0°C (63°F) [RH = 46%]
Pressure (altimeter): 29.68 inches Hg (1005.0 mb)
Winds: from the NNE (30 degrees) at 5 MPH (4 knots; 2.1 m/s)
Visibility: 4 miles ( 7 km)
Ceiling: at least 12,000 feet AGL
Clouds: scattered clouds at 3500 feet AGL
Weather: no significant weather observed at this time

Forecast for: OIBK (KISH ISLAND , IR)
Text: TAF OIBK 212300Z 2200/2306 12008KT 6000 BKN030 BKN080
Forecast period: 0000 to 1800 UTC 22 April 2019
Forecast type: FROM: standard forecast or significant change
Winds: from the ESE (120 degrees) at 9 MPH (8 knots; 4.1 m/s)
Visibility: 4 miles (6 km)
Ceiling: 3000 feet AGL
Clouds: broken clouds at 3000 feet AGL
broken clouds at 8000 feet AGL
Weather: no significant weather forecast for this period
Text: TEMPO 2200/2204 FEW030CB SCT035 BKN080
Forecast period: 0000 to 0400 UTC 22 April 2019
Forecast type: TEMPORARY: The following changes expected for less than half the time period
Visibility: missing
Ceiling: 8000 feet AGL
Clouds: few clouds at 3000 feet AGL
scattered clouds at 3500 feet AGL
broken clouds at 8000 feet AGL
Weather: no significant weather forecast for this period
Text: TEMPO 2204/2209 4000 SHRA FEW030CB SCT035 BKN080
Forecast period: 0400 to 0900 UTC 22 April 2019
Forecast type: TEMPORARY: The following changes expected for less than half the time period
Visibility: 2.49 miles (4.01 km)
Ceiling: 8000 feet AGL
Clouds: few clouds at 3000 feet AGL
scattered clouds at 3500 feet AGL
broken clouds at 8000 feet AGL
Weather: SHRA  (rain showers)
Text: TEMPO 2210/2214 30018KT FEW030CB SCT090
Forecast period: 1000 to 1400 UTC 22 April 2019
Forecast type: TEMPORARY: The following changes expected for less than half the time period
Winds: from the WNW (300 degrees) at 21 MPH (18 knots; 9.3 m/s)
Visibility: missing
Ceiling: at least 12,000 feet AGL
Clouds: few clouds at 3000 feet AGL
scattered clouds at 9000 feet AGL
Weather: no significant weather forecast for this period
Text: BECMG 2218/2220 30020KT
Forecast period: 1800 UTC 22 April 2019 to 0600 UTC 23 April 2019
Forecast type: BECOMING: Conditions expected to become as follows by 2000 UTC 22 April 2019
Winds: from the WNW (300 degrees) at 23 MPH (20 knots; 10.3 m/s)
Visibility: 4 miles (6 km)
Ceiling: 3000 feet AGL
Clouds: broken clouds at 3000 feet AGL
broken clouds at 8000 feet AGL
Weather: no significant weather forecast for this period
Text: TEMPO 2222/2306 30030KT
Forecast period: 2200 UTC 22 April 2019 to 0600 UTC 23 April 2019
Forecast type: TEMPORARY: The following changes expected for less than half the time period
Winds: from the WNW (300 degrees) at 34 MPH (30 knots; 15.4 m/s)
Visibility: missing
Ceiling: unknown
Clouds: missing
Weather: no significant weather forecast for this period